sensor_id;sensor_type;location;lat;lon;timestamp;P1;durP1;ratioP1;P2;durP2;ratioP2
6077;SDS011;3067;49.470;10.394;2023-03-05T00:01:31;44.23;;;14.80;;
6077;SDS011;3067;49.470;10.394;2023-03-05T00:03:59;53.67;;;15.00;;
6077;SDS011;3067;49.470;10.394;2023-03-05T00:06:28;63.47;;;14.10;;
6077;SDS011;3067;49.470;10.394;2023-03-05T00:08:56;35.47;;;13.40;;
6077;SDS011;3067;49.470;10.394;2023-03-05T00:11:23;38.03;;;14.90;;
6077;SDS011;3067;49.470;10.394;2023-03-05T00:13:53;40.93;;;16.63;;
6077;SDS011;3067;49.470;10.394;2023-03-05T00:16:21;47.63;;;15.43;;
6077;SDS011;3067;49.470;10.394;2023-03-05T00:18:50;37.43;;;13.80;;
6077;SDS011;3067;49.470;10.394;2023-03-05T00:21:19;41.70;;;14.47;;
6077;SDS011;3067;49.470;10.394;2023-03-05T00:23:48;33.90;;;13.10;;
6077;SDS011;3067;49.470;10.394;2023-03-05T00:26:16;38.67;;;13.63;;
6077;SDS011;3067;49.470;10.394;2023-03-05T00:28:43;41.50;;;14.20;;
6077;SDS011;3067;49.470;10.394;2023-03-05T00:31:14;39.10;;;14.07;;
6077;SDS011;3067;49.470;10.394;2023-03-05T00:33:41;43.30;;;14.37;;
6077;SDS011;3067;49.470;10.394;2023-03-05T00:36:09;43.23;;;13.80;;
6077;SDS011;3067;49.470;10.394;2023-03-05T00:38:36;51.17;;;14.40;;
6077;SDS011;3067;49.470;10.394;2023-03-05T00:41:05;40.77;;;13.10;;
6077;SDS011;3067;49.470;10.394;2023-03-05T00:43:32;33.40;;;13.07;;
6077;SDS011;3067;49.470;10.394;2023-03-05T00:46:00;45.27;;;15.47;;
6077;SDS011;3067;49.470;10.394;2023-03-05T00:48:27;31.13;;;12.50;;
6077;SDS011;3067;49.470;10.394;2023-03-05T00:50:54;59.87;;;14.67;;
6077;SDS011;3067;49.470;10.394;2023-03-05T00:53:22;42.50;;;14.67;;
6077;SDS011;3067;49.470;10.394;2023-03-05T00:55:49;41.47;;;14.13;;
6077;SDS011;3067;49.470;10.394;2023-03-05T00:58:18;45.97;;;14.37;;
6077;SDS011;3067;49.470;10.394;2023-03-05T01:00:45;44.60;;;14.30;;
6077;SDS011;3067;49.470;10.394;2023-03-05T01:03:14;41.77;;;12.73;;
6077;SDS011;3067;49.470;10.394;2023-03-05T01:05:42;35.03;;;13.63;;
6077;SDS011;3067;49.470;10.394;2023-03-05T01:08:09;31.90;;;12.90;;
6077;SDS011;3067;49.470;10.394;2023-03-05T01:10:36;37.60;;;12.93;;
6077;SDS011;3067;49.470;10.394;2023-03-05T01:13:03;38.43;;;13.70;;
6077;SDS011;3067;49.470;10.394;2023-03-05T01:15:32;36.07;;;13.70;;
6077;SDS011;3067;49.470;10.394;2023-03-05T01:17:59;36.83;;;13.60;;
6077;SDS011;3067;49.470;10.394;2023-03-05T01:20:27;56.30;;;14.40;;
6077;SDS011;3067;49.470;10.394;2023-03-05T01:22:54;43.20;;;14.20;;
6077;SDS011;3067;49.470;10.394;2023-03-05T01:25:23;41.90;;;13.73;;
6077;SDS011;3067;49.470;10.394;2023-03-05T01:27:50;38.60;;;13.37;;
6077;SDS011;3067;49.470;10.394;2023-03-05T01:30:17;42.43;;;13.47;;
6077;SDS011;3067;49.470;10.394;2023-03-05T01:32:46;39.53;;;13.37;;
6077;SDS011;3067;49.470;10.394;2023-03-05T01:35:14;36.50;;;12.87;;
6077;SDS011;3067;49.470;10.394;2023-03-05T01:37:41;40.27;;;13.50;;
6077;SDS011;3067;49.470;10.394;2023-03-05T01:40:12;38.23;;;14.60;;
6077;SDS011;3067;49.470;10.394;2023-03-05T01:42:43;44.97;;;14.80;;
6077;SDS011;3067;49.470;10.394;2023-03-05T01:45:11;41.70;;;13.73;;
6077;SDS011;3067;49.470;10.394;2023-03-05T01:47:39;46.67;;;13.37;;
6077;SDS011;3067;49.470;10.394;2023-03-05T01:50:09;32.50;;;13.80;;
6077;SDS011;3067;49.470;10.394;2023-03-05T01:52:38;37.03;;;13.57;;
6077;SDS011;3067;49.470;10.394;2023-03-05T01:55:07;41.20;;;14.07;;
6077;SDS011;3067;49.470;10.394;2023-03-05T01:57:36;54.20;;;13.80;;
6077;SDS011;3067;49.470;10.394;2023-03-05T02:00:05;39.10;;;14.40;;
6077;SDS011;3067;49.470;10.394;2023-03-05T02:02:33;43.27;;;14.30;;
6077;SDS011;3067;49.470;10.394;2023-03-05T02:05:01;35.63;;;13.30;;
6077;SDS011;3067;49.470;10.394;2023-03-05T02:07:31;31.00;;;12.70;;
6077;SDS011;3067;49.470;10.394;2023-03-05T02:10:01;41.60;;;12.60;;
6077;SDS011;3067;49.470;10.394;2023-03-05T02:12:30;41.57;;;14.70;;
6077;SDS011;3067;49.470;10.394;2023-03-05T02:14:57;37.17;;;13.53;;
6077;SDS011;3067;49.470;10.394;2023-03-05T02:17:25;30.93;;;11.87;;
6077;SDS011;3067;49.470;10.394;2023-03-05T02:19:54;31.47;;;13.90;;
6077;SDS011;3067;49.470;10.394;2023-03-05T02:22:23;36.53;;;13.70;;
6077;SDS011;3067;49.470;10.394;2023-03-05T02:24:50;41.33;;;14.00;;
6077;SDS011;3067;49.470;10.394;2023-03-05T02:27:19;39.67;;;15.10;;
6077;SDS011;3067;49.470;10.394;2023-03-05T02:29:47;33.70;;;12.97;;
6077;SDS011;3067;49.470;10.394;2023-03-05T02:32:16;40.77;;;14.60;;
6077;SDS011;3067;49.470;10.394;2023-03-05T02:34:43;42.93;;;14.23;;
6077;SDS011;3067;49.470;10.394;2023-03-05T02:37:10;36.40;;;14.00;;
6077;SDS011;3067;49.470;10.394;2023-03-05T02:39:39;42.60;;;14.43;;
6077;SDS011;3067;49.470;10.394;2023-03-05T02:42:06;44.27;;;14.67;;
6077;SDS011;3067;49.470;10.394;2023-03-05T02:44:34;43.50;;;14.73;;
6077;SDS011;3067;49.470;10.394;2023-03-05T02:47:01;41.23;;;14.30;;
6077;SDS011;3067;49.470;10.394;2023-03-05T02:49:29;39.60;;;14.60;;
6077;SDS011;3067;49.470;10.394;2023-03-05T02:51:56;40.67;;;14.40;;
6077;SDS011;3067;49.470;10.394;2023-03-05T02:54:23;42.13;;;14.27;;
6077;SDS011;3067;49.470;10.394;2023-03-05T02:56:52;37.30;;;12.87;;
6077;SDS011;3067;49.470;10.394;2023-03-05T02:59:19;39.57;;;14.50;;
6077;SDS011;3067;49.470;10.394;2023-03-05T03:01:46;41.00;;;15.00;;
6077;SDS011;3067;49.470;10.394;2023-03-05T03:04:14;42.10;;;15.40;;
6077;SDS011;3067;49.470;10.394;2023-03-05T03:06:41;51.10;;;15.37;;
6077;SDS011;3067;49.470;10.394;2023-03-05T03:09:09;39.17;;;14.07;;
6077;SDS011;3067;49.470;10.394;2023-03-05T03:11:36;37.07;;;13.90;;
6077;SDS011;3067;49.470;10.394;2023-03-05T03:14:04;41.27;;;13.63;;
6077;SDS011;3067;49.470;10.394;2023-03-05T03:16:32;41.13;;;14.17;;
6077;SDS011;3067;49.470;10.394;2023-03-05T03:18:59;41.47;;;14.17;;
6077;SDS011;3067;49.470;10.394;2023-03-05T03:21:27;45.33;;;13.60;;
6077;SDS011;3067;49.470;10.394;2023-03-05T03:23:54;46.03;;;13.60;;
6077;SDS011;3067;49.470;10.394;2023-03-05T03:26:21;39.90;;;14.20;;
6077;SDS011;3067;49.470;10.394;2023-03-05T03:28:49;33.77;;;13.40;;
6077;SDS011;3067;49.470;10.394;2023-03-05T03:31:17;44.83;;;15.27;;
6077;SDS011;3067;49.470;10.394;2023-03-05T03:33:45;37.53;;;13.60;;
6077;SDS011;3067;49.470;10.394;2023-03-05T03:36:12;47.13;;;13.97;;
6077;SDS011;3067;49.470;10.394;2023-03-05T03:38:39;39.37;;;14.10;;
6077;SDS011;3067;49.470;10.394;2023-03-05T03:41:07;40.83;;;13.97;;
6077;SDS011;3067;49.470;10.394;2023-03-05T03:43:34;35.63;;;14.30;;
6077;SDS011;3067;49.470;10.394;2023-03-05T03:46:02;46.00;;;14.80;;
6077;SDS011;3067;49.470;10.394;2023-03-05T03:48:31;38.70;;;14.20;;
6077;SDS011;3067;49.470;10.394;2023-03-05T03:51:02;36.83;;;14.90;;
6077;SDS011;3067;49.470;10.394;2023-03-05T03:53:29;34.77;;;12.60;;
6077;SDS011;3067;49.470;10.394;2023-03-05T03:55:57;44.47;;;13.93;;
6077;SDS011;3067;49.470;10.394;2023-03-05T03:58:24;44.60;;;15.60;;
6077;SDS011;3067;49.470;10.394;2023-03-05T04:00:51;37.23;;;13.50;;
6077;SDS011;3067;49.470;10.394;2023-03-05T04:03:18;36.50;;;14.10;;
6077;SDS011;3067;49.470;10.394;2023-03-05T04:05:47;39.90;;;13.13;;
6077;SDS011;3067;49.470;10.394;2023-03-05T04:08:14;45.37;;;14.70;;
6077;SDS011;3067;49.470;10.394;2023-03-05T04:10:42;33.30;;;10.43;;
6077;SDS011;3067;49.470;10.394;2023-03-05T04:13:09;36.40;;;13.73;;
6077;SDS011;3067;49.470;10.394;2023-03-05T04:15:36;38.10;;;14.20;;
6077;SDS011;3067;49.470;10.394;2023-03-05T04:18:04;38.03;;;13.47;;
6077;SDS011;3067;49.470;10.394;2023-03-05T04:20:31;49.63;;;14.50;;
6077;SDS011;3067;49.470;10.394;2023-03-05T04:23:00;44.87;;;15.80;;
6077;SDS011;3067;49.470;10.394;2023-03-05T04:25:27;36.50;;;11.57;;
6077;SDS011;3067;49.470;10.394;2023-03-05T04:27:54;36.30;;;13.77;;
6077;SDS011;3067;49.470;10.394;2023-03-05T04:30:21;36.07;;;13.53;;
6077;SDS011;3067;49.470;10.394;2023-03-05T04:32:49;39.87;;;14.03;;
6077;SDS011;3067;49.470;10.394;2023-03-05T04:35:16;39.37;;;14.83;;
6077;SDS011;3067;49.470;10.394;2023-03-05T04:37:43;45.50;;;15.13;;
6077;SDS011;3067;49.470;10.394;2023-03-05T04:40:12;42.53;;;14.27;;
6077;SDS011;3067;49.470;10.394;2023-03-05T04:42:40;36.87;;;12.83;;
6077;SDS011;3067;49.470;10.394;2023-03-05T04:45:07;45.97;;;14.53;;
6077;SDS011;3067;49.470;10.394;2023-03-05T04:47:35;40.97;;;14.50;;
6077;SDS011;3067;49.470;10.394;2023-03-05T04:50:03;43.73;;;14.70;;
6077;SDS011;3067;49.470;10.394;2023-03-05T04:52:30;48.57;;;16.50;;
6077;SDS011;3067;49.470;10.394;2023-03-05T04:54:57;40.13;;;15.60;;
6077;SDS011;3067;49.470;10.394;2023-03-05T04:57:26;45.90;;;14.97;;
6077;SDS011;3067;49.470;10.394;2023-03-05T04:59:53;36.83;;;13.67;;
6077;SDS011;3067;49.470;10.394;2023-03-05T05:02:21;39.27;;;14.30;;
6077;SDS011;3067;49.470;10.394;2023-03-05T05:04:50;34.73;;;13.37;;
6077;SDS011;3067;49.470;10.394;2023-03-05T05:07:18;41.07;;;13.47;;
6077;SDS011;3067;49.470;10.394;2023-03-05T05:09:45;40.97;;;14.80;;
6077;SDS011;3067;49.470;10.394;2023-03-05T05:12:12;40.53;;;13.90;;
6077;SDS011;3067;49.470;10.394;2023-03-05T05:14:41;39.73;;;13.83;;
6077;SDS011;3067;49.470;10.394;2023-03-05T05:17:08;44.20;;;14.93;;
6077;SDS011;3067;49.470;10.394;2023-03-05T05:19:36;40.57;;;14.90;;
6077;SDS011;3067;49.470;10.394;2023-03-05T05:22:03;46.60;;;14.23;;
6077;SDS011;3067;49.470;10.394;2023-03-05T05:24:30;32.10;;;13.80;;
6077;SDS011;3067;49.470;10.394;2023-03-05T05:26:57;33.73;;;13.57;;
6077;SDS011;3067;49.470;10.394;2023-03-05T05:29:25;43.60;;;13.90;;
6077;SDS011;3067;49.470;10.394;2023-03-05T05:31:54;37.33;;;13.90;;
6077;SDS011;3067;49.470;10.394;2023-03-05T05:34:21;35.50;;;14.10;;
6077;SDS011;3067;49.470;10.394;2023-03-05T05:36:49;38.63;;;14.10;;
6077;SDS011;3067;49.470;10.394;2023-03-05T05:39:16;36.83;;;14.83;;
6077;SDS011;3067;49.470;10.394;2023-03-05T05:41:44;41.80;;;15.57;;
6077;SDS011;3067;49.470;10.394;2023-03-05T05:44:11;58.90;;;16.80;;
6077;SDS011;3067;49.470;10.394;2023-03-05T05:46:38;39.13;;;14.80;;
6077;SDS011;3067;49.470;10.394;2023-03-05T05:49:07;38.20;;;14.87;;
6077;SDS011;3067;49.470;10.394;2023-03-05T05:51:34;37.40;;;14.00;;
6077;SDS011;3067;49.470;10.394;2023-03-05T05:54:02;37.73;;;12.97;;
6077;SDS011;3067;49.470;10.394;2023-03-05T05:56:29;30.40;;;13.13;;
6077;SDS011;3067;49.470;10.394;2023-03-05T05:58:57;38.63;;;14.23;;
6077;SDS011;3067;49.470;10.394;2023-03-05T06:01:26;38.20;;;13.80;;
6077;SDS011;3067;49.470;10.394;2023-03-05T06:03:54;39.10;;;14.57;;
6077;SDS011;3067;49.470;10.394;2023-03-05T06:06:23;37.07;;;14.37;;
6077;SDS011;3067;49.470;10.394;2023-03-05T06:08:50;40.60;;;13.93;;
6077;SDS011;3067;49.470;10.394;2023-03-05T06:11:18;38.87;;;14.50;;
6077;SDS011;3067;49.470;10.394;2023-03-05T06:13:46;35.93;;;12.20;;
6077;SDS011;3067;49.470;10.394;2023-03-05T06:16:15;41.63;;;13.87;;
6077;SDS011;3067;49.470;10.394;2023-03-05T06:18:42;36.57;;;14.03;;
6077;SDS011;3067;49.470;10.394;2023-03-05T06:21:11;40.67;;;14.77;;
6077;SDS011;3067;49.470;10.394;2023-03-05T06:23:40;34.53;;;14.97;;
6077;SDS011;3067;49.470;10.394;2023-03-05T06:26:08;47.43;;;16.47;;
6077;SDS011;3067;49.470;10.394;2023-03-05T06:28:36;47.40;;;14.93;;
6077;SDS011;3067;49.470;10.394;2023-03-05T06:31:04;38.30;;;15.20;;
6077;SDS011;3067;49.470;10.394;2023-03-05T06:33:32;43.77;;;15.90;;
6077;SDS011;3067;49.470;10.394;2023-03-05T06:36:01;46.47;;;15.27;;
6077;SDS011;3067;49.470;10.394;2023-03-05T06:38:28;44.87;;;14.77;;
6077;SDS011;3067;49.470;10.394;2023-03-05T06:41:00;44.83;;;13.20;;
6077;SDS011;3067;49.470;10.394;2023-03-05T06:43:29;37.23;;;15.00;;
6077;SDS011;3067;49.470;10.394;2023-03-05T06:46:01;42.97;;;15.33;;
6077;SDS011;3067;49.470;10.394;2023-03-05T06:48:28;41.47;;;15.43;;
6077;SDS011;3067;49.470;10.394;2023-03-05T06:50:55;31.73;;;13.27;;
6077;SDS011;3067;49.470;10.394;2023-03-05T06:53:23;43.17;;;15.90;;
6077;SDS011;3067;49.470;10.394;2023-03-05T06:55:50;39.53;;;14.67;;
6077;SDS011;3067;49.470;10.394;2023-03-05T06:58:20;37.53;;;14.50;;
6077;SDS011;3067;49.470;10.394;2023-03-05T07:00:47;35.30;;;14.63;;
6077;SDS011;3067;49.470;10.394;2023-03-05T07:03:14;34.20;;;13.93;;
6077;SDS011;3067;49.470;10.394;2023-03-05T07:05:42;39.27;;;15.40;;
6077;SDS011;3067;49.470;10.394;2023-03-05T07:08:09;38.17;;;13.93;;
6077;SDS011;3067;49.470;10.394;2023-03-05T07:10:37;41.20;;;14.87;;
6077;SDS011;3067;49.470;10.394;2023-03-05T07:13:05;39.13;;;15.20;;
6077;SDS011;3067;49.470;10.394;2023-03-05T07:15:36;40.83;;;14.73;;
6077;SDS011;3067;49.470;10.394;2023-03-05T07:18:03;43.27;;;15.47;;
6077;SDS011;3067;49.470;10.394;2023-03-05T07:20:32;41.10;;;16.57;;
6077;SDS011;3067;49.470;10.394;2023-03-05T07:22:59;47.40;;;16.30;;
6077;SDS011;3067;49.470;10.394;2023-03-05T07:25:27;46.53;;;15.50;;
6077;SDS011;3067;49.470;10.394;2023-03-05T07:27:54;37.67;;;13.37;;
6077;SDS011;3067;49.470;10.394;2023-03-05T07:30:22;40.10;;;15.53;;
6077;SDS011;3067;49.470;10.394;2023-03-05T07:32:50;36.03;;;14.20;;
6077;SDS011;3067;49.470;10.394;2023-03-05T07:35:18;35.77;;;14.30;;
6077;SDS011;3067;49.470;10.394;2023-03-05T07:37:45;36.37;;;13.50;;
6077;SDS011;3067;49.470;10.394;2023-03-05T07:40:12;35.27;;;13.60;;
6077;SDS011;3067;49.470;10.394;2023-03-05T07:42:40;36.63;;;14.80;;
6077;SDS011;3067;49.470;10.394;2023-03-05T07:45:07;43.97;;;15.00;;
6077;SDS011;3067;49.470;10.394;2023-03-05T07:47:35;39.47;;;14.10;;
6077;SDS011;3067;49.470;10.394;2023-03-05T07:50:04;41.07;;;14.23;;
6077;SDS011;3067;49.470;10.394;2023-03-05T07:52:32;37.63;;;14.40;;
6077;SDS011;3067;49.470;10.394;2023-03-05T07:55:02;31.50;;;14.13;;
6077;SDS011;3067;49.470;10.394;2023-03-05T07:57:30;31.53;;;13.07;;
6077;SDS011;3067;49.470;10.394;2023-03-05T07:59:57;31.30;;;13.87;;
6077;SDS011;3067;49.470;10.394;2023-03-05T08:02:24;30.33;;;14.70;;
6077;SDS011;3067;49.470;10.394;2023-03-05T08:04:51;30.00;;;13.57;;
6077;SDS011;3067;49.470;10.394;2023-03-05T08:07:20;29.67;;;13.03;;
6077;SDS011;3067;49.470;10.394;2023-03-05T08:09:48;29.13;;;11.17;;
6077;SDS011;3067;49.470;10.394;2023-03-05T08:12:15;28.13;;;12.57;;
6077;SDS011;3067;49.470;10.394;2023-03-05T08:14:42;30.57;;;12.63;;
6077;SDS011;3067;49.470;10.394;2023-03-05T08:17:09;26.67;;;12.80;;
6077;SDS011;3067;49.470;10.394;2023-03-05T08:19:37;23.87;;;10.80;;
6077;SDS011;3067;49.470;10.394;2023-03-05T08:22:04;25.83;;;10.60;;
6077;SDS011;3067;49.470;10.394;2023-03-05T08:24:33;24.17;;;10.97;;
6077;SDS011;3067;49.470;10.394;2023-03-05T08:27:00;25.07;;;9.03;;
6077;SDS011;3067;49.470;10.394;2023-03-05T08:29:27;18.27;;;7.93;;
6077;SDS011;3067;49.470;10.394;2023-03-05T08:31:55;25.10;;;10.40;;
6077;SDS011;3067;49.470;10.394;2023-03-05T08:34:23;19.37;;;8.57;;
6077;SDS011;3067;49.470;10.394;2023-03-05T08:36:50;18.63;;;7.87;;
6077;SDS011;3067;49.470;10.394;2023-03-05T08:39:18;12.53;;;7.63;;
6077;SDS011;3067;49.470;10.394;2023-03-05T08:41:46;15.10;;;7.73;;
6077;SDS011;3067;49.470;10.394;2023-03-05T08:44:14;19.80;;;7.90;;
6077;SDS011;3067;49.470;10.394;2023-03-05T08:46:41;17.10;;;7.70;;
6077;SDS011;3067;49.470;10.394;2023-03-05T08:49:08;17.70;;;7.20;;
6077;SDS011;3067;49.470;10.394;2023-03-05T08:51:36;16.40;;;7.63;;
6077;SDS011;3067;49.470;10.394;2023-03-05T08:54:03;21.20;;;9.40;;
6077;SDS011;3067;49.470;10.394;2023-03-05T08:56:32;17.87;;;7.63;;
6077;SDS011;3067;49.470;10.394;2023-03-05T08:59:00;20.00;;;7.90;;
6077;SDS011;3067;49.470;10.394;2023-03-05T09:01:28;13.77;;;8.67;;
6077;SDS011;3067;49.470;10.394;2023-03-05T09:03:56;15.70;;;7.90;;
6077;SDS011;3067;49.470;10.394;2023-03-05T09:06:23;18.73;;;8.70;;
6077;SDS011;3067;49.470;10.394;2023-03-05T09:08:51;15.30;;;7.30;;
6077;SDS011;3067;49.470;10.394;2023-03-05T09:11:19;13.60;;;7.30;;
6077;SDS011;3067;49.470;10.394;2023-03-05T09:13:47;15.23;;;7.20;;
6077;SDS011;3067;49.470;10.394;2023-03-05T09:16:16;14.53;;;6.87;;
6077;SDS011;3067;49.470;10.394;2023-03-05T09:18:43;10.57;;;6.20;;
6077;SDS011;3067;49.470;10.394;2023-03-05T09:21:11;14.53;;;5.80;;
6077;SDS011;3067;49.470;10.394;2023-03-05T09:23:39;12.30;;;6.60;;
6077;SDS011;3067;49.470;10.394;2023-03-05T09:26:06;6.53;;;3.53;;
6077;SDS011;3067;49.470;10.394;2023-03-05T09:28:35;6.37;;;4.50;;
6077;SDS011;3067;49.470;10.394;2023-03-05T09:31:02;8.30;;;5.20;;
6077;SDS011;3067;49.470;10.394;2023-03-05T09:33:31;7.97;;;4.40;;
6077;SDS011;3067;49.470;10.394;2023-03-05T09:35:59;9.47;;;4.73;;
6077;SDS011;3067;49.470;10.394;2023-03-05T09:38:26;7.73;;;3.23;;
6077;SDS011;3067;49.470;10.394;2023-03-05T09:40:56;4.40;;;4.00;;
6077;SDS011;3067;49.470;10.394;2023-03-05T09:43:29;12.10;;;3.90;;
6077;SDS011;3067;49.470;10.394;2023-03-05T09:46:04;5.20;;;4.30;;
6077;SDS011;3067;49.470;10.394;2023-03-05T09:48:47;6.47;;;4.00;;
6077;SDS011;3067;49.470;10.394;2023-03-05T09:51:17;6.10;;;3.50;;
6077;SDS011;3067;49.470;10.394;2023-03-05T09:53:47;6.83;;;3.50;;
6077;SDS011;3067;49.470;10.394;2023-03-05T09:56:17;4.43;;;3.30;;
6077;SDS011;3067;49.470;10.394;2023-03-05T09:58:46;5.67;;;3.43;;
6077;SDS011;3067;49.470;10.394;2023-03-05T10:01:15;2.70;;;2.50;;
6077;SDS011;3067;49.470;10.394;2023-03-05T10:03:48;3.37;;;3.07;;
6077;SDS011;3067;49.470;10.394;2023-03-05T10:06:19;4.40;;;3.30;;
6077;SDS011;3067;49.470;10.394;2023-03-05T10:08:51;6.90;;;2.93;;
6077;SDS011;3067;49.470;10.394;2023-03-05T10:11:32;5.20;;;3.00;;
6077;SDS011;3067;49.470;10.394;2023-03-05T10:14:00;5.63;;;2.83;;
6077;SDS011;3067;49.470;10.394;2023-03-05T10:16:35;2.77;;;2.57;;
6077;SDS011;3067;49.470;10.394;2023-03-05T10:19:08;2.80;;;2.57;;
6077;SDS011;3067;49.470;10.394;2023-03-05T10:21:41;2.60;;;2.50;;
6077;SDS011;3067;49.470;10.394;2023-03-05T10:24:12;5.67;;;2.57;;
6077;SDS011;3067;49.470;10.394;2023-03-05T10:26:57;5.13;;;2.60;;
6077;SDS011;3067;49.470;10.394;2023-03-05T10:29:37;4.53;;;2.77;;
6077;SDS011;3067;49.470;10.394;2023-03-05T10:32:09;1.90;;;1.80;;
6077;SDS011;3067;49.470;10.394;2023-03-05T10:34:46;3.77;;;2.83;;
6077;SDS011;3067;49.470;10.394;2023-03-05T10:37:26;4.03;;;2.53;;
6077;SDS011;3067;49.470;10.394;2023-03-05T10:40:00;5.20;;;2.70;;
6077;SDS011;3067;49.470;10.394;2023-03-05T10:42:35;2.67;;;2.33;;
6077;SDS011;3067;49.470;10.394;2023-03-05T10:45:08;2.83;;;2.60;;
6077;SDS011;3067;49.470;10.394;2023-03-05T10:47:40;3.60;;;2.20;;
6077;SDS011;3067;49.470;10.394;2023-03-05T10:50:14;4.10;;;2.77;;
6077;SDS011;3067;49.470;10.394;2023-03-05T10:52:42;2.33;;;2.23;;
6077;SDS011;3067;49.470;10.394;2023-03-05T10:55:13;2.67;;;2.40;;
6077;SDS011;3067;49.470;10.394;2023-03-05T10:57:41;5.37;;;2.20;;
6077;SDS011;3067;49.470;10.394;2023-03-05T11:00:11;3.83;;;2.60;;
6077;SDS011;3067;49.470;10.394;2023-03-05T11:02:51;3.50;;;2.73;;
6077;SDS011;3067;49.470;10.394;2023-03-05T11:05:33;3.30;;;2.60;;
6077;SDS011;3067;49.470;10.394;2023-03-05T11:08:07;3.90;;;2.13;;
6077;SDS011;3067;49.470;10.394;2023-03-05T11:10:44;3.80;;;2.57;;
6077;SDS011;3067;49.470;10.394;2023-03-05T11:13:19;2.50;;;2.30;;
6077;SDS011;3067;49.470;10.394;2023-03-05T11:15:57;2.57;;;2.40;;
6077;SDS011;3067;49.470;10.394;2023-03-05T11:18:24;3.73;;;2.30;;
6077;SDS011;3067;49.470;10.394;2023-03-05T11:21:05;2.07;;;1.90;;
6077;SDS011;3067;49.470;10.394;2023-03-05T11:23:33;2.73;;;2.23;;
6077;SDS011;3067;49.470;10.394;2023-03-05T11:26:02;5.73;;;2.20;;
6077;SDS011;3067;49.470;10.394;2023-03-05T11:28:31;5.03;;;2.07;;
6077;SDS011;3067;49.470;10.394;2023-03-05T11:31:03;2.73;;;2.53;;
6077;SDS011;3067;49.470;10.394;2023-03-05T11:33:33;2.60;;;2.50;;
6077;SDS011;3067;49.470;10.394;2023-03-05T11:36:21;3.70;;;2.50;;
6077;SDS011;3067;49.470;10.394;2023-03-05T11:38:53;2.57;;;2.37;;
6077;SDS011;3067;49.470;10.394;2023-03-05T11:41:23;3.47;;;2.23;;
6077;SDS011;3067;49.470;10.394;2023-03-05T11:43:51;2.90;;;2.70;;
6077;SDS011;3067;49.470;10.394;2023-03-05T11:46:19;6.60;;;2.33;;
6077;SDS011;3067;49.470;10.394;2023-03-05T11:48:47;2.33;;;2.13;;
6077;SDS011;3067;49.470;10.394;2023-03-05T11:51:15;3.07;;;1.90;;
6077;SDS011;3067;49.470;10.394;2023-03-05T11:53:45;3.07;;;2.00;;
6077;SDS011;3067;49.470;10.394;2023-03-05T11:56:15;10.33;;;2.40;;
6077;SDS011;3067;49.470;10.394;2023-03-05T11:58:44;2.50;;;2.40;;
6077;SDS011;3067;49.470;10.394;2023-03-05T12:01:13;2.30;;;2.20;;
6077;SDS011;3067;49.470;10.394;2023-03-05T12:03:41;2.37;;;2.27;;
6077;SDS011;3067;49.470;10.394;2023-03-05T12:06:13;2.03;;;1.80;;
6077;SDS011;3067;49.470;10.394;2023-03-05T12:08:43;2.00;;;1.90;;
6077;SDS011;3067;49.470;10.394;2023-03-05T12:11:15;2.40;;;2.30;;
6077;SDS011;3067;49.470;10.394;2023-03-05T12:13:44;2.37;;;2.20;;
6077;SDS011;3067;49.470;10.394;2023-03-05T12:16:14;3.20;;;2.17;;
6077;SDS011;3067;49.470;10.394;2023-03-05T12:18:47;2.60;;;2.50;;
6077;SDS011;3067;49.470;10.394;2023-03-05T12:21:21;3.37;;;2.57;;
6077;SDS011;3067;49.470;10.394;2023-03-05T12:23:50;3.20;;;2.70;;
6077;SDS011;3067;49.470;10.394;2023-03-05T12:26:19;2.40;;;2.10;;
6077;SDS011;3067;49.470;10.394;2023-03-05T12:29:11;3.60;;;2.77;;
6077;SDS011;3067;49.470;10.394;2023-03-05T12:31:52;5.60;;;2.83;;
6077;SDS011;3067;49.470;10.394;2023-03-05T12:34:40;10.13;;;3.47;;
6077;SDS011;3067;49.470;10.394;2023-03-05T12:37:12;3.30;;;2.90;;
6077;SDS011;3067;49.470;10.394;2023-03-05T12:39:41;15.40;;;2.87;;
6077;SDS011;3067;49.470;10.394;2023-03-05T12:47:47;6.07;;;3.50;;
6077;SDS011;3067;49.470;10.394;2023-03-05T12:52:58;7.50;;;3.60;;
6077;SDS011;3067;49.470;10.394;2023-03-05T12:55:26;7.70;;;3.20;;
6077;SDS011;3067;49.470;10.394;2023-03-05T12:57:55;5.10;;;3.80;;
6077;SDS011;3067;49.470;10.394;2023-03-05T13:00:24;4.47;;;3.50;;
6077;SDS011;3067;49.470;10.394;2023-03-05T13:02:55;9.83;;;3.67;;
6077;SDS011;3067;49.470;10.394;2023-03-05T13:05:25;8.07;;;4.20;;
6077;SDS011;3067;49.470;10.394;2023-03-05T13:07:53;6.33;;;4.43;;
6077;SDS011;3067;49.470;10.394;2023-03-05T13:10:35;7.20;;;4.40;;
6077;SDS011;3067;49.470;10.394;2023-03-05T13:13:02;5.80;;;4.00;;
6077;SDS011;3067;49.470;10.394;2023-03-05T13:15:30;4.67;;;4.20;;
6077;SDS011;3067;49.470;10.394;2023-03-05T13:17:59;7.00;;;4.00;;
6077;SDS011;3067;49.470;10.394;2023-03-05T13:20:31;5.40;;;3.50;;
6077;SDS011;3067;49.470;10.394;2023-03-05T13:23:09;4.87;;;3.80;;
6077;SDS011;3067;49.470;10.394;2023-03-05T13:25:39;8.70;;;3.90;;
6077;SDS011;3067;49.470;10.394;2023-03-05T13:28:09;8.90;;;4.00;;
6077;SDS011;3067;49.470;10.394;2023-03-05T13:30:37;4.90;;;3.73;;
6077;SDS011;3067;49.470;10.394;2023-03-05T13:33:12;5.63;;;3.63;;
6077;SDS011;3067;49.470;10.394;2023-03-05T13:35:43;6.20;;;3.87;;
6077;SDS011;3067;49.470;10.394;2023-03-05T13:38:14;11.03;;;3.87;;
6077;SDS011;3067;49.470;10.394;2023-03-05T13:40:59;8.90;;;4.40;;
6077;SDS011;3067;49.470;10.394;2023-03-05T13:43:27;6.40;;;3.90;;
6077;SDS011;3067;49.470;10.394;2023-03-05T13:45:54;5.83;;;4.37;;
6077;SDS011;3067;49.470;10.394;2023-03-05T13:48:24;9.80;;;4.50;;
6077;SDS011;3067;49.470;10.394;2023-03-05T13:50:53;6.27;;;4.30;;
6077;SDS011;3067;49.470;10.394;2023-03-05T13:53:21;6.83;;;3.93;;
6077;SDS011;3067;49.470;10.394;2023-03-05T13:55:50;7.70;;;4.93;;
6077;SDS011;3067;49.470;10.394;2023-03-05T14:01:04;7.47;;;4.47;;
6077;SDS011;3067;49.470;10.394;2023-03-05T14:03:39;6.23;;;4.17;;
6077;SDS011;3067;49.470;10.394;2023-03-05T14:06:07;5.00;;;3.87;;
6077;SDS011;3067;49.470;10.394;2023-03-05T14:08:35;5.40;;;4.20;;
6077;SDS011;3067;49.470;10.394;2023-03-05T14:11:13;4.80;;;4.23;;
6077;SDS011;3067;49.470;10.394;2023-03-05T14:13:41;5.63;;;3.57;;
6077;SDS011;3067;49.470;10.394;2023-03-05T14:16:09;7.23;;;4.53;;
6077;SDS011;3067;49.470;10.394;2023-03-05T14:18:36;7.27;;;4.33;;
6077;SDS011;3067;49.470;10.394;2023-03-05T14:21:06;13.03;;;4.60;;
6077;SDS011;3067;49.470;10.394;2023-03-05T14:23:35;5.73;;;4.60;;
6077;SDS011;3067;49.470;10.394;2023-03-05T14:26:20;5.70;;;4.53;;
6077;SDS011;3067;49.470;10.394;2023-03-05T14:28:49;10.63;;;4.40;;
6077;SDS011;3067;49.470;10.394;2023-03-05T14:31:17;6.47;;;4.10;;
6077;SDS011;3067;49.470;10.394;2023-03-05T14:33:45;6.73;;;4.30;;
6077;SDS011;3067;49.470;10.394;2023-03-05T14:36:19;6.20;;;4.10;;
6077;SDS011;3067;49.470;10.394;2023-03-05T14:38:46;7.17;;;3.77;;
6077;SDS011;3067;49.470;10.394;2023-03-05T14:41:37;5.57;;;4.20;;
6077;SDS011;3067;49.470;10.394;2023-03-05T14:44:12;12.87;;;3.73;;
6077;SDS011;3067;49.470;10.394;2023-03-05T14:46:42;9.33;;;4.40;;
6077;SDS011;3067;49.470;10.394;2023-03-05T14:49:14;7.17;;;3.70;;
6077;SDS011;3067;49.470;10.394;2023-03-05T14:51:43;9.40;;;4.17;;
6077;SDS011;3067;49.470;10.394;2023-03-05T14:54:18;6.50;;;4.03;;
6077;SDS011;3067;49.470;10.394;2023-03-05T14:56:46;7.73;;;4.60;;
6077;SDS011;3067;49.470;10.394;2023-03-05T14:59:14;5.13;;;4.07;;
6077;SDS011;3067;49.470;10.394;2023-03-05T15:01:41;7.50;;;4.00;;
6077;SDS011;3067;49.470;10.394;2023-03-05T15:04:09;8.27;;;4.30;;
6077;SDS011;3067;49.470;10.394;2023-03-05T15:06:36;5.27;;;4.30;;
6077;SDS011;3067;49.470;10.394;2023-03-05T15:09:07;7.60;;;4.40;;